createdAt,value
2022-08-20T00:01:06.040Z,8.95
2022-08-20T00:03:36.305Z,7.47
2022-08-20T00:06:13.713Z,7.85
2022-08-20T00:08:42.111Z,7.25
2022-08-20T00:11:11.249Z,10.57
2022-08-20T00:13:43.586Z,8.13
2022-08-20T00:16:11.298Z,7.38
2022-08-20T00:18:39.168Z,6.15
2022-08-20T00:21:18.768Z,11.15
2022-08-20T00:23:50.300Z,7.80
2022-08-20T00:26:17.856Z,5.72
2022-08-20T00:28:44.655Z,6.38
2022-08-20T00:31:14.093Z,8.77
2022-08-20T00:33:40.927Z,7.32
2022-08-20T00:36:10.987Z,6.57
2022-08-20T00:38:40.551Z,7.75
2022-08-20T00:41:10.310Z,10.95
2022-08-20T00:46:18.812Z,9.68
2022-08-20T00:48:50.207Z,7.78
2022-08-20T00:51:34.867Z,8.45
2022-08-20T00:54:14.162Z,9.75
2022-08-20T00:56:43.950Z,10.73
2022-08-20T00:59:15.359Z,6.70
2022-08-20T01:01:55.131Z,8.57
2022-08-20T01:04:25.259Z,6.43
2022-08-20T01:06:52.184Z,9.33
2022-08-20T01:09:50.244Z,10.07
2022-08-20T01:12:07.909Z,7.25
2022-08-20T01:14:34.780Z,10.43
2022-08-20T01:17:06.380Z,10.20
2022-08-20T01:19:38.319Z,8.18
2022-08-20T01:22:26.849Z,6.95
2022-08-20T01:25:05.321Z,7.13
2022-08-20T01:27:33.684Z,8.75
2022-08-20T01:30:10.462Z,7.82
2022-08-20T01:32:37.267Z,7.13
2022-08-20T01:35:05.843Z,10.35
2022-08-20T01:37:32.759Z,8.18
2022-08-20T01:39:59.716Z,8.25
2022-08-20T01:42:59.176Z,7.45
2022-08-20T01:45:28.315Z,7.85
2022-08-20T01:47:58.241Z,7.82
2022-08-20T01:50:29.359Z,8.40
2022-08-20T01:53:04.671Z,6.05
2022-08-20T01:55:32.649Z,6.28
2022-08-20T01:58:01.392Z,11.73
2022-08-20T02:00:28.630Z,9.18
2022-08-20T02:02:55.420Z,8.73
2022-08-20T02:05:22.850Z,7.95
2022-08-20T02:07:50.101Z,8.73
2022-08-20T02:10:18.610Z,7.28
2022-08-20T02:12:45.536Z,12.93
2022-08-20T02:15:13.486Z,10.52
2022-08-20T02:17:42.001Z,8.98
2022-08-20T02:20:28.860Z,6.43
2022-08-20T02:22:58.915Z,9.43
2022-08-20T02:25:28.474Z,7.55
2022-08-20T02:27:57.545Z,10.85
2022-08-20T02:30:28.720Z,11.57
2022-08-20T02:32:57.928Z,12.93
2022-08-20T02:35:25.834Z,9.02
2022-08-20T02:37:53.708Z,9.18
2022-08-20T02:40:30.458Z,7.25
2022-08-20T02:42:58.460Z,6.95
2022-08-20T02:45:25.670Z,7.75
2022-08-20T02:47:57.155Z,9.32
2022-08-20T02:50:25.621Z,7.97
2022-08-20T02:52:54.202Z,10.50
2022-08-20T02:55:27.220Z,9.90
2022-08-20T02:58:00.031Z,9.25
2022-08-20T03:00:37.869Z,7.97
2022-08-20T03:03:07.070Z,7.93
2022-08-20T03:05:34.639Z,7.88
2022-08-20T03:08:01.498Z,7.90
2022-08-20T03:10:32.350Z,7.30
2022-08-20T03:13:01.697Z,8.63
2022-08-20T03:15:33.850Z,8.50
2022-08-20T03:18:01.201Z,8.25
2022-08-20T03:20:28.985Z,12.82
2022-08-20T03:22:56.230Z,10.18
2022-08-20T03:25:23.547Z,6.93
2022-08-20T03:27:54.316Z,6.32
2022-08-20T03:30:23.865Z,6.70
2022-08-20T03:32:51.067Z,6.85
2022-08-20T03:35:19.889Z,6.20
2022-08-20T03:37:48.366Z,4.93
2022-08-20T03:40:19.711Z,6.50
2022-08-20T03:42:46.541Z,5.78
2022-08-20T03:45:18.414Z,4.35
2022-08-20T03:47:47.287Z,7.22
2022-08-20T03:50:14.636Z,4.30
2022-08-20T03:52:50.541Z,5.38
2022-08-20T03:55:17.650Z,8.95
2022-08-20T03:57:46.962Z,5.53
2022-08-20T04:00:15.510Z,6.22
2022-08-20T04:02:42.280Z,7.50
2022-08-20T04:05:10.318Z,9.75
2022-08-20T04:07:38.206Z,5.10
2022-08-20T04:10:10.099Z,6.93
2022-08-20T04:12:41.986Z,5.45
2022-08-20T04:15:20.242Z,5.88
2022-08-20T04:17:50.494Z,5.55
2022-08-20T04:20:23.088Z,5.97
2022-08-20T04:22:58.712Z,6.50
2022-08-20T04:25:29.621Z,4.68
2022-08-20T04:28:02.081Z,5.95
2022-08-20T04:30:29.597Z,7.05
2022-08-20T04:32:57.704Z,5.43
2022-08-20T04:35:24.816Z,6.03
2022-08-20T04:38:01.949Z,6.32
2022-08-20T04:40:48.338Z,6.10
2022-08-20T04:43:15.761Z,5.10
2022-08-20T04:45:42.888Z,5.72
2022-08-20T04:48:14.743Z,6.78
2022-08-20T04:50:45.128Z,6.45
2022-08-20T04:53:14.476Z,7.13
2022-08-20T04:55:43.173Z,5.88
2022-08-20T04:58:36.517Z,6.15
2022-08-20T05:01:09.583Z,5.38
2022-08-20T05:03:38.308Z,8.45
2022-08-20T05:06:10.761Z,7.95
2022-08-20T05:08:41.241Z,6.43
2022-08-20T05:11:33.635Z,4.97
2022-08-20T05:13:56.730Z,5.45
2022-08-20T05:16:24.716Z,6.72
2022-08-20T05:18:52.818Z,6.28
2022-08-20T05:21:21.152Z,7.28
2022-08-20T05:23:49.551Z,5.80
2022-08-20T05:26:17.318Z,6.40
2022-08-20T05:28:54.444Z,5.22
2022-08-20T05:31:31.890Z,4.85
2022-08-20T05:34:12.525Z,7.50
2022-08-20T05:36:50.677Z,8.30
2022-08-20T05:39:22.192Z,5.05
2022-08-20T05:41:51.373Z,3.53
2022-08-20T05:44:18.938Z,3.90
2022-08-20T05:46:47.574Z,3.97
2022-08-20T05:49:20.025Z,3.53
2022-08-20T05:51:47.396Z,3.10
2022-08-20T05:54:15.130Z,2.55
2022-08-20T05:56:42.347Z,5.03
2022-08-20T05:59:10.338Z,4.88
2022-08-20T06:01:39.185Z,2.95
2022-08-20T06:04:28.176Z,1.98
2022-08-20T06:07:03.938Z,1.52
2022-08-20T06:09:32.605Z,4.75
2022-08-20T06:12:06.294Z,1.58
2022-08-20T06:14:33.690Z,1.30
2022-08-20T06:17:19.267Z,1.40
2022-08-20T06:19:49.206Z,4.97
2022-08-20T06:22:19.016Z,1.40
2022-08-20T06:24:54.200Z,4.53
2022-08-20T06:27:21.642Z,0.88
2022-08-20T06:29:49.696Z,3.38
2022-08-20T06:32:17.348Z,1.92
2022-08-20T06:34:50.233Z,2.50
2022-08-20T06:37:28.138Z,2.10
2022-08-20T06:40:10.811Z,1.02
2022-08-20T06:42:42.437Z,1.83
2022-08-20T06:45:16.601Z,2.25
2022-08-20T06:47:45.538Z,3.00
2022-08-20T06:50:15.453Z,2.80
2022-08-20T06:52:52.856Z,2.80
2022-08-20T06:55:21.378Z,1.58
2022-08-20T06:57:48.576Z,1.40
2022-08-20T07:00:18.838Z,2.42
2022-08-20T07:02:47.157Z,2.75
2022-08-20T07:05:16.300Z,1.92
2022-08-20T07:07:51.202Z,2.05
2022-08-20T07:10:20.204Z,2.35
2022-08-20T07:12:47.578Z,2.15
2022-08-20T07:15:15.303Z,2.38
2022-08-20T07:17:42.894Z,2.58
2022-08-20T07:20:14.319Z,2.65
2022-08-20T07:22:42.456Z,2.00
2022-08-20T07:25:12.702Z,4.05
2022-08-20T07:27:39.563Z,3.28
2022-08-20T07:30:28.335Z,1.70
2022-08-20T07:32:55.522Z,2.20
2022-08-20T07:35:22.222Z,2.67
2022-08-20T07:37:51.865Z,2.50
2022-08-20T07:42:54.801Z,2.17
2022-08-20T07:45:22.324Z,1.48
2022-08-20T07:47:49.771Z,1.42
2022-08-20T07:50:19.721Z,1.30
2022-08-20T07:52:47.102Z,1.23
2022-08-20T07:55:16.553Z,0.85
2022-08-20T07:57:47.191Z,1.45
2022-08-20T08:00:15.601Z,0.85
2022-08-20T08:02:42.517Z,1.17
2022-08-20T08:05:10.099Z,1.23
2022-08-20T08:07:38.008Z,0.93
2022-08-20T08:10:09.094Z,1.15
2022-08-20T08:12:42.442Z,1.42
2022-08-20T08:15:15.699Z,1.58
2022-08-20T08:17:45.029Z,1.20
2022-08-20T08:20:12.570Z,5.25
2022-08-20T08:22:45.628Z,2.42
2022-08-20T08:25:15.178Z,1.60
2022-08-20T08:27:42.040Z,1.67
2022-08-20T08:30:10.224Z,1.27
2022-08-20T08:32:58.143Z,2.15
2022-08-20T08:35:26.086Z,1.50
2022-08-20T08:37:54.141Z,1.98
2022-08-20T08:40:23.928Z,2.00
2022-08-20T08:42:58.348Z,2.70
2022-08-20T08:45:31.681Z,1.85
2022-08-20T08:47:59.383Z,3.00
2022-08-20T08:50:52.988Z,3.42
2022-08-20T08:53:53.601Z,1.67
2022-08-20T08:56:23.577Z,2.22
2022-08-20T08:58:50.355Z,3.42
2022-08-20T09:01:54.323Z,2.50
2022-08-20T09:04:09.636Z,1.77
2022-08-20T09:06:36.924Z,2.75
2022-08-20T09:09:06.579Z,2.25
2022-08-20T09:11:47.444Z,2.00
2022-08-20T09:14:14.268Z,2.00
2022-08-20T09:16:52.223Z,3.05
2022-08-20T09:19:20.103Z,1.63
2022-08-20T09:21:46.900Z,4.03
2022-08-20T09:24:13.760Z,2.35
2022-08-20T09:26:40.502Z,3.30
2022-08-20T09:29:07.354Z,2.67
2022-08-20T09:31:34.208Z,3.75
2022-08-20T09:34:01.420Z,3.60
2022-08-20T09:36:32.417Z,3.17
2022-08-20T09:39:02.731Z,3.78
2022-08-20T09:41:29.837Z,3.75
2022-08-20T09:43:56.580Z,3.10
2022-08-20T09:46:26.995Z,4.40
2022-08-20T09:48:54.291Z,5.22
2022-08-20T09:51:22.042Z,3.78
2022-08-20T09:53:49.259Z,5.80
2022-08-20T09:56:17.258Z,5.43
2022-08-20T09:58:57.999Z,3.30
2022-08-20T10:01:26.721Z,4.43
2022-08-20T10:03:53.500Z,3.13
2022-08-20T10:06:20.808Z,5.45
2022-08-20T10:08:49.208Z,5.28
2022-08-20T10:11:18.138Z,5.20
2022-08-20T10:13:45.375Z,4.32
2022-08-20T10:16:12.150Z,3.70
2022-08-20T10:18:39.027Z,3.35
2022-08-20T10:21:12.962Z,4.45
2022-08-20T10:23:40.826Z,4.43
2022-08-20T10:26:12.151Z,3.65
2022-08-20T10:28:39.589Z,3.20
2022-08-20T10:31:08.011Z,3.00
2022-08-20T10:33:35.537Z,3.83
2022-08-20T10:36:17.584Z,5.00
2022-08-20T10:38:45.235Z,3.40
2022-08-20T10:41:12.244Z,3.78
2022-08-20T10:43:39.067Z,3.53
2022-08-20T10:46:06.205Z,5.45
2022-08-20T10:48:33.154Z,4.60
2022-08-20T10:50:59.979Z,2.88
2022-08-20T10:53:27.087Z,3.90
2022-08-20T10:55:56.080Z,3.13
2022-08-20T10:58:23.117Z,3.45
2022-08-20T11:00:51.240Z,3.80
2022-08-20T11:03:18.213Z,2.95
2022-08-20T11:05:45.331Z,3.88
2022-08-20T11:08:12.562Z,4.53
2022-08-20T11:10:40.477Z,4.90
2022-08-20T11:13:08.641Z,3.42
2022-08-20T11:15:41.303Z,3.53
2022-08-20T11:18:08.985Z,4.38
2022-08-20T11:20:36.041Z,4.07
2022-08-20T11:23:03.149Z,3.25
2022-08-20T11:25:30.658Z,4.35
2022-08-20T11:27:58.585Z,3.22
2022-08-20T11:30:29.306Z,3.38
2022-08-20T11:32:57.685Z,4.00
2022-08-20T11:35:49.426Z,3.35
2022-08-20T11:37:58.068Z,2.90
2022-08-20T11:40:27.173Z,3.50
2022-08-20T11:43:13.609Z,4.30
2022-08-20T11:45:41.301Z,4.90
2022-08-20T11:48:08.186Z,4.28
2022-08-20T11:50:35.260Z,3.00
2022-08-20T11:53:02.345Z,3.88
2022-08-20T11:57:56.172Z,3.28
2022-08-20T12:00:31.937Z,6.50
2022-08-20T12:03:05.456Z,3.83
2022-08-20T12:05:33.801Z,3.83
2022-08-20T12:08:02.316Z,3.00
2022-08-20T12:10:30.352Z,5.47
2022-08-20T12:12:57.520Z,3.35
2022-08-20T12:15:27.002Z,5.75
2022-08-20T12:17:54.724Z,3.65
2022-08-20T12:20:23.309Z,3.95
2022-08-20T12:22:50.839Z,4.82
2022-08-20T12:25:17.971Z,3.95
2022-08-20T12:27:46.854Z,4.72
2022-08-20T12:30:20.049Z,3.45
2022-08-20T12:32:47.527Z,5.68
2022-08-20T12:35:17.124Z,4.22
2022-08-20T12:37:44.098Z,4.43
2022-08-20T12:40:22.734Z,5.05
2022-08-20T12:42:46.303Z,3.42
2022-08-20T12:45:13.141Z,4.38
2022-08-20T12:47:44.857Z,4.63
2022-08-20T12:50:18.346Z,4.32
2022-08-20T12:52:45.949Z,5.05
2022-08-20T12:55:16.232Z,4.53
2022-08-20T12:57:51.780Z,3.85
2022-08-20T13:00:22.025Z,6.78
2022-08-20T13:02:51.121Z,7.70
2022-08-20T13:05:18.159Z,5.15
2022-08-20T13:07:47.051Z,5.18
2022-08-20T13:10:21.998Z,4.60
2022-08-20T13:12:49.510Z,6.15
2022-08-20T13:15:17.001Z,5.60
2022-08-20T13:17:44.255Z,6.70
2022-08-20T13:22:36.840Z,5.50
2022-08-20T13:25:05.087Z,4.75
2022-08-20T13:27:32.588Z,4.70
2022-08-20T13:29:59.889Z,7.07
2022-08-20T13:32:26.986Z,5.45
2022-08-20T13:34:53.858Z,6.55
2022-08-20T13:37:26.531Z,5.05
2022-08-20T13:39:55.238Z,6.82
2022-08-20T13:42:22.801Z,7.00
2022-08-20T13:44:49.897Z,6.25
2022-08-20T13:47:29.179Z,5.82
2022-08-20T13:50:03.741Z,7.55
2022-08-20T13:52:32.011Z,9.80
2022-08-20T13:54:59.021Z,6.82
2022-08-20T13:57:26.522Z,9.18
2022-08-20T13:59:57.168Z,6.75
2022-08-20T14:02:24.951Z,7.97
2022-08-20T14:04:52.772Z,7.35
2022-08-20T14:07:30.164Z,6.03
2022-08-20T14:12:28.514Z,6.47
2022-08-20T14:14:57.891Z,6.93
2022-08-20T14:17:30.869Z,5.63
2022-08-20T14:20:04.462Z,7.13
2022-08-20T14:22:32.843Z,8.95
2022-08-20T14:25:04.118Z,6.70
2022-08-20T14:27:33.584Z,5.68
2022-08-20T14:30:01.387Z,6.13
2022-08-20T14:32:28.911Z,6.20
2022-08-20T14:34:58.236Z,7.63
2022-08-20T14:37:27.933Z,6.57
2022-08-20T14:44:58.847Z,4.60
2022-08-20T14:47:31.723Z,5.85
2022-08-20T14:50:05.446Z,5.97
2022-08-20T14:52:36.544Z,6.18
2022-08-20T14:55:05.654Z,5.68
2022-08-20T14:57:33.310Z,8.70
2022-08-20T15:00:02.015Z,7.00
2022-08-20T15:02:28.830Z,6.97
2022-08-20T15:04:55.945Z,4.28
2022-08-20T15:07:24.528Z,5.68
2022-08-20T15:09:51.984Z,5.47
2022-08-20T15:12:19.060Z,4.63
2022-08-20T15:14:47.986Z,4.35
2022-08-20T15:17:25.573Z,5.85
2022-08-20T15:19:52.923Z,4.93
2022-08-20T15:22:20.628Z,5.57
2022-08-20T15:24:47.965Z,5.38
2022-08-20T15:27:22.820Z,4.72
2022-08-20T15:29:51.372Z,7.45
2022-08-20T15:32:21.851Z,3.50
2022-08-20T15:34:49.682Z,6.72
2022-08-20T15:37:22.725Z,3.45
2022-08-20T15:39:51.177Z,4.88
2022-08-20T15:42:19.894Z,4.90
2022-08-20T15:44:49.523Z,3.13
2022-08-20T15:49:49.149Z,3.08
2022-08-20T15:52:17.605Z,4.20
2022-08-20T15:54:45.964Z,3.17
2022-08-20T15:57:41.273Z,2.95
2022-08-20T16:00:20.307Z,2.55
2022-08-20T16:03:06.411Z,2.63
2022-08-20T16:05:42.133Z,2.05
2022-08-20T16:08:18.246Z,1.67
2022-08-20T16:13:44.126Z,2.47
2022-08-20T16:16:33.250Z,1.45
2022-08-20T16:19:00.709Z,3.42
2022-08-20T16:21:34.839Z,1.83
2022-08-20T16:24:02.127Z,3.58
2022-08-20T16:26:51.175Z,2.20
2022-08-20T16:29:25.030Z,4.60
2022-08-20T16:32:03.469Z,3.33
2022-08-20T16:34:46.017Z,4.63
2022-08-20T16:37:30.027Z,4.93
2022-08-20T16:40:05.811Z,4.57
2022-08-20T16:42:39.297Z,4.53
2022-08-20T16:45:12.271Z,3.47
2022-08-20T16:47:41.269Z,3.83
2022-08-20T16:50:20.188Z,3.92
2022-08-20T16:52:49.504Z,4.05
2022-08-20T16:55:16.432Z,5.95
2022-08-20T16:57:44.660Z,5.78
2022-08-20T17:00:16.436Z,4.68
2022-08-20T17:02:56.915Z,7.15
2022-08-20T17:05:29.943Z,6.40
2022-08-20T17:08:02.458Z,5.75
2022-08-20T17:10:35.864Z,5.97
2022-08-20T17:13:21.220Z,5.22
2022-08-20T17:16:06.891Z,5.18
2022-08-20T17:18:37.192Z,4.45
2022-08-20T17:21:12.027Z,4.47
2022-08-20T17:23:55.521Z,4.85
2022-08-20T17:26:36.798Z,4.78
2022-08-20T17:29:20.840Z,5.25
2022-08-20T17:31:54.114Z,5.32
2022-08-20T17:34:24.630Z,3.95
2022-08-20T17:36:57.309Z,4.57
2022-08-20T17:39:29.941Z,5.93
2022-08-20T17:42:14.488Z,5.88
2022-08-20T17:44:46.195Z,5.47
2022-08-20T17:47:17.134Z,6.20
2022-08-20T17:50:02.533Z,5.78
2022-08-20T17:52:49.188Z,6.80
2022-08-20T17:55:17.477Z,5.20
2022-08-20T17:57:52.669Z,7.72
2022-08-20T18:00:25.884Z,4.95
2022-08-20T18:03:14.144Z,5.97
2022-08-20T18:05:44.995Z,5.50
2022-08-20T18:08:34.080Z,5.00
2022-08-20T18:11:35.178Z,6.32
2022-08-20T18:14:16.678Z,4.93
2022-08-20T18:17:00.966Z,5.90
2022-08-20T18:20:25.299Z,4.68
2022-08-20T18:23:00.205Z,5.50
2022-08-20T18:25:53.542Z,4.50
2022-08-20T18:29:04.035Z,5.40
2022-08-20T18:31:41.207Z,5.32
2022-08-20T18:34:17.276Z,5.85
2022-08-20T18:39:48.998Z,4.57
2022-08-20T18:42:23.722Z,3.58
2022-08-20T18:44:58.212Z,3.92
2022-08-20T18:47:45.210Z,4.88
2022-08-20T18:50:21.026Z,6.30
2022-08-20T18:53:12.352Z,3.58
2022-08-20T18:55:47.987Z,3.25
2022-08-20T18:58:29.753Z,3.20
2022-08-20T19:00:57.283Z,4.05
2022-08-20T19:03:31.967Z,5.30
2022-08-20T19:06:40.122Z,6.88
2022-08-20T19:09:14.907Z,3.72
2022-08-20T19:11:57.186Z,3.47
2022-08-20T19:14:27.394Z,5.03
2022-08-20T19:17:11.628Z,4.90
2022-08-20T19:19:39.374Z,5.10
2022-08-20T19:22:06.904Z,5.47
2022-08-20T19:24:37.190Z,7.13
2022-08-20T19:27:09.602Z,7.10
2022-08-20T19:29:46.149Z,8.15
2022-08-20T19:32:30.297Z,7.82
2022-08-20T19:35:05.995Z,8.02
2022-08-20T19:37:50.677Z,6.90
2022-08-20T19:40:29.685Z,9.25
2022-08-20T19:43:00.022Z,9.73
2022-08-20T19:45:26.866Z,10.85
2022-08-20T19:48:12.496Z,11.95
2022-08-20T19:51:03.047Z,12.77
2022-08-20T19:53:32.637Z,12.20
2022-08-20T19:56:05.031Z,13.95
2022-08-20T19:58:33.769Z,12.65
2022-08-20T20:01:02.771Z,12.52
2022-08-20T20:03:38.017Z,15.10
2022-08-20T20:06:16.071Z,13.27
2022-08-20T20:09:01.370Z,14.82
2022-08-20T20:11:32.240Z,13.70
2022-08-20T20:14:06.488Z,15.40
2022-08-20T20:16:34.346Z,16.38
2022-08-20T20:19:25.192Z,16.88
2022-08-20T20:22:19.312Z,16.13
2022-08-20T20:24:59.376Z,17.38
2022-08-20T20:27:27.847Z,20.50
2022-08-20T20:30:11.075Z,18.48
2022-08-20T20:32:48.286Z,19.05
2022-08-20T20:35:36.746Z,17.80
2022-08-20T20:38:24.516Z,16.55
2022-08-20T20:40:55.315Z,18.00
2022-08-20T20:43:27.833Z,18.83
2022-08-20T20:46:06.515Z,19.95
2022-08-20T20:48:43.983Z,18.05
2022-08-20T20:51:22.305Z,17.33
2022-08-20T20:53:54.668Z,14.82
2022-08-20T20:56:34.583Z,16.08
2022-08-20T20:59:06.617Z,14.05
2022-08-20T21:01:49.578Z,12.23
2022-08-20T21:04:22.182Z,11.15
2022-08-20T21:06:50.275Z,8.13
2022-08-20T21:09:17.255Z,9.20
2022-08-20T21:11:44.712Z,7.95
2022-08-20T21:14:11.563Z,8.13
2022-08-20T21:16:38.411Z,10.13
2022-08-20T21:19:08.123Z,10.05
2022-08-20T21:24:01.613Z,9.20
2022-08-20T21:26:29.112Z,9.40
2022-08-20T21:28:56.121Z,12.20
2022-08-20T21:31:30.236Z,7.97
2022-08-20T21:33:56.923Z,10.98
2022-08-20T21:36:23.631Z,8.35
2022-08-20T21:38:51.307Z,9.90
2022-08-20T21:41:18.103Z,8.55
2022-08-20T21:43:45.104Z,9.00
2022-08-20T21:46:16.272Z,12.55
2022-08-20T21:48:51.663Z,10.50
2022-08-20T21:51:18.522Z,12.23
2022-08-20T21:53:45.692Z,15.80
2022-08-20T21:56:12.633Z,12.70
2022-08-20T21:58:39.765Z,13.30
2022-08-20T22:01:06.892Z,14.98
2022-08-20T22:03:38.870Z,14.57
2022-08-20T22:06:11.776Z,15.55
2022-08-20T22:08:39.260Z,14.45
2022-08-20T22:11:07.963Z,15.15
2022-08-20T22:13:35.219Z,16.70
2022-08-20T22:16:05.104Z,14.98
2022-08-20T22:18:32.116Z,17.75
2022-08-20T22:20:59.158Z,15.48
2022-08-20T22:23:26.333Z,15.43
2022-08-20T22:25:53.312Z,15.32
2022-08-20T22:28:20.956Z,16.17
2022-08-20T22:30:48.213Z,16.27
2022-08-20T22:33:20.092Z,17.77
2022-08-20T22:35:50.724Z,19.05
2022-08-20T22:38:17.609Z,14.90
2022-08-20T22:40:44.934Z,16.67
2022-08-20T22:43:12.535Z,18.65
2022-08-20T22:45:40.802Z,27.27
2022-08-20T22:48:08.813Z,18.33
2022-08-20T22:50:37.853Z,21.23
2022-08-20T22:53:06.467Z,19.05
2022-08-20T22:55:33.304Z,19.80
2022-08-20T22:58:00.152Z,17.67
2022-08-20T23:03:41.622Z,21.13
2022-08-20T23:06:09.732Z,19.00
2022-08-20T23:08:37.665Z,18.67
2022-08-20T23:11:04.907Z,21.30
2022-08-20T23:13:31.645Z,18.92
2022-08-20T23:15:58.561Z,20.83
2022-08-20T23:18:25.311Z,19.35
2022-08-20T23:20:56.348Z,19.83
2022-08-20T23:23:25.397Z,19.95
2022-08-20T23:25:52.969Z,22.48
2022-08-20T23:28:22.739Z,19.15
2022-08-20T23:33:16.701Z,17.38
2022-08-20T23:35:44.512Z,16.92
2022-08-20T23:38:11.518Z,20.58
2022-08-20T23:40:38.422Z,15.98
2022-08-20T23:43:05.619Z,18.60
2022-08-20T23:45:33.587Z,14.95
2022-08-20T23:48:01.405Z,14.45
2022-08-20T23:50:30.255Z,16.13
2022-08-20T23:52:57.856Z,14.70
2022-08-20T23:55:25.281Z,16.52
2022-08-20T23:57:52.516Z,17.63
